Makinen, Minnesota
Current Conditions -  °F | °C
As of 2:11 AM on Friday 31 Oct 2014 (Local Time) from KEVM Reporting Station
Overcast Overcast  
Wind Chill: 18°   Ceiling: 3000
Heat Index: 27°   Visibility: 10mi
Dew Point: 18°   Wind: 8mph
Humidity: 69%   Direction: 350°N
Pressure: 30.44"   Gusts: 20mph
Location:  47.36°N, 92.37°W
Report Text: KEVM 310711Z AUTO 35007G17KT 10SM OVC030 M03/M08 A3044 RMK AO2
Loading
Personal Weather Stations






























Interactive Weather Map
Tropical Storm Tracking
New forecast layout! Learn more

10-Day Weather Forecast

Advertisements
Track Severe Weather on mobile